Time;durP1;ratioP1;P1;durP2;ratioP2;P2;SDS_P1;SDS_P2;PMS_P1;PMS_P2;Temp;Humidity;BMP_temperature;BMP_pressure;BME280_temperature;BME280_humidity;BME280_pressure;Samples;Min_cycle;Max_cycle;Signal;HPM_P1;HPM_P2
2021/11/04 07:02:11;;;;;;;10.52;6.72;;;6.60;99.90;;;;;;5052927;23;20045;-93
2021/11/04 07:04:41;;;;;;;6.15;1.85;;;6.60;99.90;;;;;;4872133;29;20120;-94
2021/11/04 07:07:10;;;;;;;7.20;1.73;;;6.60;99.90;;;;;;4879882;29;20045;-93
2021/11/04 07:09:39;;;;;;;5.38;1.77;;;6.60;99.90;;;;;;4879342;29;20101;-91
2021/11/04 07:12:10;;;;;;;6.80;2.70;;;6.60;99.90;;;;;;4879458;29;20066;-94
2021/11/04 07:14:42;;;;;;;11.93;4.57;;;6.70;99.90;;;;;;4880229;29;20061;-93
2021/11/04 07:17:13;;;;;;;10.68;3.22;;;6.70;99.90;;;;;;4878923;29;20509;-94
2021/11/04 07:19:45;;;;;;;9.75;1.77;;;6.70;99.90;;;;;;4879864;29;20127;-91
2021/11/04 07:22:26;;;;;;;7.50;2.10;;;6.60;99.90;;;;;;4878035;29;20049;-91
2021/11/04 07:24:59;;;;;;;4.78;1.92;;;6.60;99.90;;;;;;4870982;29;20056;-91
2021/11/04 07:27:51;;;;;;;4.00;1.75;;;6.60;99.90;;;;;;4874621;29;20053;-91
2021/11/04 07:30:19;;;;;;;4.18;1.83;;;6.60;99.90;;;;;;4872439;29;20562;-92
2021/11/04 07:32:53;;;;;;;5.40;1.92;;;6.60;99.90;;;;;;4876957;29;20048;-92
2021/11/04 07:35:27;;;;;;;4.50;1.42;;;6.70;99.90;;;;;;4872271;29;20582;-91
2021/11/04 07:37:54;;;;;;;6.72;1.75;;;6.70;99.90;;;;;;4871889;29;20049;-91
2021/11/04 07:40:25;;;;;;;3.35;1.48;;;6.80;99.90;;;;;;4868124;29;20057;-91
2021/11/04 07:42:53;;;;;;;5.70;1.50;;;6.90;99.90;;;;;;4865503;29;20081;-93
2021/11/04 07:45:20;;;;;;;5.20;2.53;;;7.00;99.90;;;;;;4877335;29;20056;-92
2021/11/04 07:47:48;;;;;;;3.47;1.40;;;7.10;99.90;;;;;;4879297;29;20074;-91
2021/11/04 07:50:23;;;;;;;6.57;1.45;;;7.20;99.90;;;;;;4878415;29;20056;-93
2021/11/04 07:52:56;;;;;;;3.72;1.58;;;7.30;99.90;;;;;;4874933;29;20068;-93
2021/11/04 07:55:23;;;;;;;6.43;2.05;;;7.40;99.90;;;;;;4871341;29;20053;-92
2021/11/04 07:57:50;;;;;;;3.92;1.40;;;7.50;99.90;;;;;;4875166;29;20052;-93
2021/11/04 08:00:21;;;;;;;4.10;1.40;;;7.60;99.90;;;;;;4875824;29;20117;-93
2021/11/04 08:02:48;;;;;;;4.03;1.17;;;7.60;99.90;;;;;;4894493;29;20048;-94
2021/11/04 08:05:18;;;;;;;5.95;1.25;;;7.70;99.90;;;;;;4889692;29;20052;-94
2021/11/04 08:07:45;;;;;;;2.85;1.02;;;7.80;99.90;;;;;;4889442;29;20101;-92
2021/11/04 08:10:15;;;;;;;5.63;1.00;;;7.90;99.90;;;;;;4872958;29;20049;-92
2021/11/04 08:12:45;;;;;;;4.57;1.10;;;7.90;99.90;;;;;;4888328;29;20052;-93
2021/11/04 08:15:13;;;;;;;3.88;1.35;;;8.00;99.90;;;;;;4871122;29;20044;-92
2021/11/04 08:17:41;;;;;;;5.50;1.00;;;8.00;99.90;;;;;;4895699;29;20055;-92
2021/11/04 08:20:10;;;;;;;6.72;1.42;;;8.10;99.90;;;;;;4877322;29;20076;-93
2021/11/04 08:22:37;;;;;;;3.38;1.25;;;8.10;99.90;;;;;;4890864;29;20454;-93
2021/11/04 08:25:06;;;;;;;5.82;1.50;;;8.20;99.90;;;;;;4878355;29;20052;-90
2021/11/04 08:27:34;;;;;;;4.80;1.10;;;8.30;99.90;;;;;;4891802;29;20176;-93
2021/11/04 08:30:01;;;;;;;3.33;1.13;;;8.30;99.90;;;;;;4893248;29;20513;-92
2021/11/04 08:32:28;;;;;;;3.08;1.23;;;8.40;99.90;;;;;;4896597;29;20045;-96
2021/11/04 08:34:55;;;;;;;5.30;1.10;;;8.40;99.90;;;;;;4894647;29;20120;-93
2021/11/04 08:37:22;;;;;;;4.45;1.58;;;8.50;99.90;;;;;;4890935;29;20044;-93
2021/11/04 08:39:49;;;;;;;1.80;0.85;;;8.60;99.90;;;;;;4879832;29;20055;-92
2021/11/04 08:42:18;;;;;;;2.28;1.13;;;8.60;99.90;;;;;;4880413;29;20112;-92
2021/11/04 08:44:44;;;;;;;3.67;1.00;;;8.70;99.90;;;;;;4895957;29;20056;-90
2021/11/04 08:47:11;;;;;;;6.57;1.27;;;8.70;99.90;;;;;;4894201;29;20104;-92
2021/11/04 08:49:39;;;;;;;5.45;1.17;;;8.80;99.90;;;;;;4893391;29;20668;-91
2021/11/04 08:52:08;;;;;;;4.15;1.35;;;8.80;99.90;;;;;;4890825;29;20048;-94
2021/11/04 08:54:36;;;;;;;7.50;1.55;;;8.90;99.90;;;;;;4889914;29;20053;-95
2021/11/04 08:57:03;;;;;;;7.22;1.80;;;9.00;99.90;;;;;;4885788;29;20052;-91
2021/11/04 08:59:30;;;;;;;5.25;1.50;;;9.00;99.90;;;;;;4889337;29;20052;-92
2021/11/04 09:01:57;;;;;;;3.58;1.50;;;9.10;99.90;;;;;;4892217;29;20040;-92
2021/11/04 09:04:25;;;;;;;5.00;1.20;;;9.20;99.90;;;;;;4889079;29;20128;-91
2021/11/04 09:06:53;;;;;;;7.57;1.30;;;9.20;99.90;;;;;;4893667;29;20108;-92
2021/11/04 09:09:21;;;;;;;3.75;1.27;;;9.30;99.90;;;;;;4894246;29;20056;-93
2021/11/04 09:11:48;;;;;;;5.30;1.50;;;9.40;99.90;;;;;;4878332;29;20108;-93
2021/11/04 09:14:15;;;;;;;3.08;1.50;;;9.50;99.90;;;;;;4890714;29;20053;-94
2021/11/04 09:16:42;;;;;;;3.15;1.13;;;9.60;99.90;;;;;;4890791;29;20124;-93
2021/11/04 09:19:10;;;;;;;7.97;1.20;;;9.70;99.90;;;;;;4876883;29;20057;-93
2021/11/04 09:21:37;;;;;;;3.63;1.35;;;9.80;99.90;;;;;;4878481;29;20907;-94
2021/11/04 09:24:05;;;;;;;6.55;1.23;;;9.90;99.90;;;;;;4894577;29;20074;-93
2021/11/04 09:26:33;;;;;;;5.82;1.20;;;9.90;99.90;;;;;;4885954;29;20490;-94
2021/11/04 09:29:01;;;;;;;4.22;1.08;;;10.00;99.90;;;;;;4892369;29;20822;-92
2021/11/04 09:31:28;;;;;;;4.25;0.80;;;10.00;99.90;;;;;;4892713;29;20439;-91
2021/11/04 09:33:57;;;;;;;4.05;1.10;;;10.00;99.90;;;;;;4883905;29;20053;-90
2021/11/04 09:36:29;;;;;;;2.65;1.42;;;10.00;99.90;;;;;;4892160;29;20056;-90
2021/11/04 09:38:58;;;;;;;3.67;1.33;;;9.90;99.90;;;;;;4890540;29;20061;-91
2021/11/04 09:41:26;;;;;;;2.25;0.90;;;10.00;99.90;;;;;;4888240;29;20378;-93
2021/11/04 09:43:56;;;;;;;3.13;0.98;;;10.10;99.90;;;;;;4895768;29;20113;-94
2021/11/04 09:46:24;;;;;;;2.40;0.90;;;10.10;99.90;;;;;;4896965;29;20044;-92
2021/11/04 09:48:52;;;;;;;3.92;0.95;;;10.10;99.90;;;;;;4872483;29;20105;-92
2021/11/04 09:51:19;;;;;;;5.22;1.00;;;10.20;99.90;;;;;;4890230;29;20072;-93
2021/11/04 09:53:48;;;;;;;6.13;0.80;;;10.20;99.90;;;;;;4896548;29;20521;-94
2021/11/04 09:56:17;;;;;;;2.88;0.80;;;10.30;99.90;;;;;;4879973;29;20076;-88
2021/11/04 09:58:44;;;;;;;5.05;0.80;;;10.30;99.90;;;;;;4896368;29;20096;-92
2021/11/04 10:01:43;;;;;;;3.80;0.65;;;10.40;99.90;;;;;;4889957;29;20059;-93
2021/11/04 10:04:10;;;;;;;4.32;1.08;;;10.50;99.90;;;;;;4894948;29;20569;-92
2021/11/04 10:06:39;;;;;;;4.90;0.80;;;10.50;99.90;;;;;;4897917;29;20045;-91
2021/11/04 10:09:12;;;;;;;1.17;0.57;;;10.60;99.90;;;;;;4897829;29;20076;-95
2021/11/04 10:11:44;;;;;;;2.70;0.60;;;10.60;99.90;;;;;;4897602;29;20076;-93
2021/11/04 10:14:13;;;;;;;3.58;0.60;;;10.60;99.90;;;;;;4896997;29;20049;-93
2021/11/04 10:16:40;;;;;;;;;;;10.60;99.90;;;;;;4898066;29;20048;-93
2021/11/04 10:19:15;;;;;;;4.20;0.95;;;10.70;99.90;;;;;;4873587;29;20304;-95
2021/11/04 10:21:44;;;;;;;2.40;0.70;;;10.80;99.90;;;;;;4898882;29;20108;-94
2021/11/04 10:24:24;;;;;;;1.80;0.30;;;10.90;99.90;;;;;;4898748;29;20518;-93
2021/11/04 10:26:55;;;;;;;1.42;0.20;;;10.80;99.90;;;;;;4899034;29;20048;-93
2021/11/04 10:29:35;;;;;;;2.17;0.30;;;10.70;99.90;;;;;;4898799;29;20052;-94
2021/11/04 10:32:02;;;;;;;1.35;0.25;;;10.50;99.90;;;;;;4898129;29;20104;-92
2021/11/04 10:34:33;;;;;;;0.60;0.20;;;10.30;99.90;;;;;;4897139;29;20120;-92
2021/11/04 10:37:15;;;;;;;0.95;0.55;;;10.10;99.90;;;;;;4898466;29;20285;-92
2021/11/04 10:39:42;;;;;;;1.27;0.95;;;9.90;99.90;;;;;;4890599;29;20493;-92
2021/11/04 10:42:10;;;;;;;0.88;0.68;;;9.80;99.90;;;;;;4897099;29;20052;-91
2021/11/04 10:44:37;;;;;;;2.50;1.40;;;9.70;99.90;;;;;;4894610;29;20052;-93
2021/11/04 10:47:04;;;;;;;1.25;0.77;;;9.60;99.90;;;;;;4896945;29;20108;-85
2021/11/04 10:49:42;;;;;;;0.98;0.60;;;9.60;99.90;;;;;;4895442;29;20053;-94
2021/11/04 10:52:10;;;;;;;1.98;0.35;;;9.50;99.90;;;;;;4893470;29;20113;-90
2021/11/04 10:54:42;;;;;;;0.90;0.40;;;9.50;99.90;;;;;;4891559;29;20112;-90
2021/11/04 10:57:10;;;;;;;0.50;0.20;;;9.50;99.90;;;;;;4874702;29;20051;-90
2021/11/04 10:59:44;;;;;;;0.75;0.20;;;9.60;99.90;;;;;;4890137;29;20072;-92
2021/11/04 11:02:12;;;;;;;2.33;0.40;;;9.60;99.90;;;;;;4876798;29;20045;-91
2021/11/04 11:04:40;;;;;;;0.45;0.30;;;9.70;99.90;;;;;;4890079;29;20467;-92
2021/11/04 11:07:08;;;;;;;0.90;0.20;;;9.70;99.90;;;;;;4873335;29;20048;-90
2021/11/04 11:09:36;;;;;;;1.88;0.30;;;9.90;99.90;;;;;;4875952;29;20056;-92
2021/11/04 11:12:06;;;;;;;4.75;0.40;;;10.00;99.90;;;;;;4894745;29;20541;-91
2021/11/04 11:14:37;;;;;;;1.40;0.55;;;10.10;99.90;;;;;;4894365;29;20096;-92
2021/11/04 11:17:05;;;;;;;0.90;0.30;;;10.20;99.90;;;;;;4894774;29;20877;-87
2021/11/04 11:19:38;;;;;;;1.07;0.30;;;10.30;99.90;;;;;;4895347;29;20082;-93
2021/11/04 11:22:07;;;;;;;2.00;0.50;;;10.30;99.90;;;;;;4895160;29;20360;-92
2021/11/04 11:24:44;;;;;;;3.13;0.60;;;10.40;99.90;;;;;;4890746;29;20425;-91
2021/11/04 11:27:16;;;;;;;2.83;0.40;;;10.40;99.90;;;;;;4894502;29;20067;-91
2021/11/04 11:29:45;;;;;;;2.03;0.50;;;10.40;99.90;;;;;;4895101;29;20057;-91
2021/11/04 11:32:29;;;;;;;4.82;0.80;;;10.50;99.90;;;;;;4892783;29;20064;-91
2021/11/04 11:35:21;;;;;;;2.25;0.40;;;10.50;99.90;;;;;;4891181;29;20056;-92
2021/11/04 11:38:05;;;;;;;12.05;0.73;;;10.60;99.90;;;;;;4894454;29;20048;-94
2021/11/04 11:40:37;;;;;;;5.35;0.70;;;10.60;99.90;;;;;;4877132;29;20052;-93
2021/11/04 11:43:11;;;;;;;1.83;0.63;;;10.60;99.90;;;;;;4892056;29;20068;-85
2021/11/04 11:45:41;;;;;;;2.97;0.50;;;10.60;99.90;;;;;;4893397;29;20100;-91
2021/11/04 11:48:25;;;;;;;4.38;0.70;;;10.60;99.90;;;;;;4876248;29;20056;-90
2021/11/04 11:50:54;;;;;;;1.95;0.40;;;10.70;99.90;;;;;;4876843;29;20052;-91
2021/11/04 11:53:37;;;;;;;2.28;0.35;;;10.70;99.90;;;;;;4877898;29;20051;-91
2021/11/04 11:56:07;;;;;;;3.30;0.63;;;10.80;99.90;;;;;;4894819;29;20833;-92
2021/11/04 11:58:38;;;;;;;3.28;0.60;;;10.80;99.90;;;;;;4887072;29;20068;-86
2021/11/04 12:01:06;;;;;;;1.90;0.47;;;10.90;99.90;;;;;;4893379;29;20048;-89
2021/11/04 12:06:16;;;;;;;2.78;0.60;;;10.90;99.90;;;;;;4885264;29;20045;-90
2021/11/04 12:08:47;;;;;;;3.33;0.70;;;11.00;99.90;;;;;;4851498;29;21055;-93
2021/11/04 12:11:36;;;;;;;1.92;0.63;;;11.10;99.90;;;;;;4888594;29;20049;-91
2021/11/04 12:14:15;;;;;;;2.47;0.50;;;11.10;99.90;;;;;;4889053;29;20382;-86
2021/11/04 12:19:38;;;;;;;2.42;0.40;;;11.30;99.90;;;;;;4887457;29;20076;-92
2021/11/04 12:22:13;;;;;;;2.08;0.43;;;11.30;99.90;;;;;;4889075;29;20135;-89
2021/11/04 12:24:56;;;;;;;4.00;0.35;;;11.40;99.90;;;;;;4892819;29;20056;-90
2021/11/04 12:27:28;;;;;;;3.90;0.57;;;11.40;99.90;;;;;;4888275;29;20045;-91
2021/11/04 12:30:23;;;;;;;2.35;0.60;;;11.40;99.90;;;;;;4878709;29;20104;-91
2021/11/04 12:33:08;;;;;;;3.88;0.75;;;11.40;99.90;;;;;;4880225;29;20079;-90
2021/11/04 12:35:59;;;;;;;1.38;0.40;;;11.50;99.90;;;;;;4892421;29;20112;-91
2021/11/04 12:38:42;;;;;;;1.27;0.50;;;11.50;99.90;;;;;;4896879;29;20494;-91
2021/11/04 12:41:12;;;;;;;2.88;0.70;;;11.60;99.90;;;;;;4878959;29;20199;-90
2021/11/04 12:43:39;;;;;;;;;;;11.60;99.90;;;;;;4890407;29;20506;-92
2021/11/04 12:46:24;;;;;;;3.53;0.95;;;11.70;99.90;;;;;;4888160;29;19924;-90
2021/11/04 12:48:58;;;;;;;1.83;0.60;;;11.70;99.90;;;;;;4886863;29;20076;-91
2021/11/04 12:51:25;;;;;;;2.67;0.57;;;11.80;99.90;;;;;;4885885;29;20053;-93
2021/11/04 12:53:58;;;;;;;4.30;0.85;;;11.80;99.90;;;;;;4879011;29;20109;-92
2021/11/04 12:56:53;;;;;;;1.73;0.20;;;11.80;99.90;;;;;;4894027;29;20473;-92
2021/11/04 12:59:38;;;;;;;2.63;0.60;;;11.60;99.90;;;;;;4896433;29;20061;-93
2021/11/04 13:02:11;;;;;;;4.35;0.43;;;11.40;99.90;;;;;;4895867;29;20060;-91
2021/11/04 13:04:41;;;;;;;3.75;0.40;;;11.40;99.90;;;;;;4896363;29;20049;-92
2021/11/04 13:07:13;;;;;;;1.90;0.43;;;11.30;99.90;;;;;;4892329;29;20048;-75
2021/11/04 13:09:44;;;;;;;3.20;0.40;;;11.30;99.90;;;;;;4895911;29;20116;-75
2021/11/04 13:12:15;;;;;;;2.50;0.30;;;11.30;99.90;;;;;;4893745;29;20053;-76
2021/11/04 13:14:50;;;;;;;3.67;0.40;;;11.40;99.90;;;;;;4897017;29;20051;-75
2021/11/04 13:17:17;;;;;;;3.92;0.65;;;11.50;99.90;;;;;;4895923;29;20096;-75
2021/11/04 13:20:07;;;;;;;1.90;0.35;;;11.50;99.90;;;;;;4896693;29;20474;-75
2021/11/04 13:22:37;;;;;;;2.60;0.38;;;11.60;99.90;;;;;;4889993;29;20072;-76
2021/11/04 13:25:13;;;;;;;1.08;0.30;;;11.50;99.90;;;;;;4896970;29;20081;-76
2021/11/04 13:27:41;;;;;;;1.83;0.28;;;11.50;99.90;;;;;;4882263;29;20076;-76
2021/11/04 13:30:09;;;;;;;1.33;0.20;;;11.50;99.90;;;;;;4888594;29;20045;-76
2021/11/04 13:32:57;;;;;;;2.80;0.30;;;11.50;99.90;;;;;;4889061;29;20148;-77
2021/11/04 13:35:32;;;;;;;2.67;0.40;;;11.50;99.90;;;;;;4888615;29;20060;-76
2021/11/04 13:38:02;;;;;;;2.17;0.30;;;11.50;99.90;;;;;;4890893;29;20521;-76
2021/11/04 13:40:37;;;;;;;3.28;0.32;;;11.50;99.90;;;;;;4896115;29;20048;-76
2021/11/04 13:43:04;;;;;;;1.42;0.40;;;11.50;99.90;;;;;;4893831;29;20041;-76
2021/11/04 13:45:31;;;;;;;1.75;0.28;;;11.50;99.90;;;;;;4889292;29;20083;-75
2021/11/04 13:48:01;;;;;;;2.50;0.40;;;11.60;99.90;;;;;;4888317;29;20459;-75
2021/11/04 13:50:55;;;;;;;1.95;0.28;;;11.60;99.90;;;;;;4889019;29;20044;-75
2021/11/04 13:53:22;;;;;;;3.92;1.27;;;11.60;99.90;;;;;;4886592;29;20044;-74
2021/11/04 13:55:51;;;;;;;3.58;1.00;;;11.60;99.90;;;;;;4887968;29;20077;-76
2021/11/04 13:58:18;;;;;;;;;;;11.50;99.90;;;;;;4890781;29;20532;-76
2021/11/04 14:00:45;;;;;;;2.30;0.90;;;11.50;99.90;;;;;;4888488;29;19973;-75
2021/11/04 14:03:15;;;;;;;3.92;0.65;;;11.50;99.90;;;;;;4887833;29;20514;-76
2021/11/04 14:06:01;;;;;;;2.50;0.70;;;11.50;99.90;;;;;;4894794;29;20064;-75
2021/11/04 14:08:40;;;;;;;5.38;2.78;;;11.50;99.90;;;;;;4887267;29;20553;-75
2021/11/04 14:11:16;;;;;;;0.80;0.22;;;11.50;99.90;;;;;;4893479;29;20053;-76
2021/11/04 14:13:57;;;;;;;2.80;0.82;;;11.50;99.90;;;;;;4892109;29;20052;-92
2021/11/04 14:16:33;;;;;;;12.75;11.40;;;11.50;99.90;;;;;;4900613;29;20056;-90
2021/11/04 14:19:03;;;;;;;2.10;0.90;;;11.50;99.90;;;;;;4882632;29;20057;-91
2021/11/04 14:21:33;;;;;;;2.65;0.40;;;11.50;99.90;;;;;;4898642;29;20101;-92
2021/11/04 14:24:03;;;;;;;0.73;0.35;;;11.50;99.90;;;;;;4899770;29;20056;-92
2021/11/04 14:26:36;;;;;;;1.95;0.20;;;11.60;99.90;;;;;;4885307;29;20122;-93
2021/11/04 14:29:05;;;;;;;2.03;0.30;;;11.60;99.90;;;;;;4882277;29;20049;-91
2021/11/04 14:31:33;;;;;;;0.82;0.17;;;11.60;99.90;;;;;;4888742;29;20048;-92
2021/11/04 14:34:01;;;;;;;0.63;0.20;;;11.70;99.90;;;;;;4898744;29;20124;-92
2021/11/04 14:36:29;;;;;;;0.90;0.30;;;11.70;99.90;;;;;;4899534;29;20049;-92
2021/11/04 14:38:56;;;;;;;2.08;0.30;;;11.80;99.90;;;;;;4899958;29;20116;-92
2021/11/04 14:41:24;;;;;;;1.30;0.22;;;11.80;99.90;;;;;;4899862;29;20056;-92
2021/11/04 14:43:52;;;;;;;1.67;0.30;;;11.70;99.90;;;;;;4883897;29;20053;-90
2021/11/04 14:46:37;;;;;;;2.15;0.40;;;11.60;99.90;;;;;;4899167;29;20052;-91
2021/11/04 14:49:04;;;;;;;2.83;0.40;;;11.60;99.90;;;;;;4895118;29;20100;-87
2021/11/04 14:51:32;;;;;;;1.47;0.23;;;11.50;99.90;;;;;;4883511;29;20565;-91
2021/11/04 14:53:59;;;;;;;2.28;0.30;;;11.50;99.90;;;;;;4900398;29;20060;-93
2021/11/04 14:56:26;;;;;;;4.15;0.40;;;11.30;99.90;;;;;;4899255;29;20067;-91
2021/11/04 14:58:53;;;;;;;1.40;0.25;;;11.20;99.90;;;;;;4900147;29;20060;-92
2021/11/04 15:01:20;;;;;;;8.35;5.80;;;11.20;99.90;;;;;;4898450;29;20064;-91
2021/11/04 15:03:47;;;;;;;2.45;0.55;;;11.00;99.90;;;;;;4896437;29;20100;-89
2021/11/04 15:06:14;;;;;;;1.88;0.40;;;10.90;99.90;;;;;;4879959;29;20101;-92
2021/11/04 15:08:41;;;;;;;0.25;0.20;;;10.90;99.90;;;;;;4882454;29;20086;-91
2021/11/04 15:11:08;;;;;;;1.88;0.40;;;10.80;99.90;;;;;;4897062;29;20053;-91
2021/11/04 15:13:35;;;;;;;3.20;1.70;;;10.70;99.90;;;;;;4880565;29;20048;-91
2021/11/04 15:16:03;;;;;;;3.47;0.63;;;10.60;99.90;;;;;;4896604;29;20497;-89
2021/11/04 15:18:31;;;;;;;3.70;1.80;;;10.50;99.90;;;;;;4881901;29;20104;-93
2021/11/04 15:20:58;;;;;;;3.25;0.90;;;10.50;99.90;;;;;;4898401;29;20057;-92
2021/11/04 15:23:25;;;;;;;1.30;0.60;;;10.40;99.90;;;;;;4897561;29;20048;-93
2021/11/04 15:25:57;;;;;;;2.25;1.00;;;10.50;99.90;;;;;;4876132;29;20131;-91
2021/11/04 15:28:24;;;;;;;1.05;0.68;;;10.50;99.90;;;;;;4895605;29;20060;-90
2021/11/04 15:30:51;;;;;;;1.42;0.40;;;10.40;99.90;;;;;;4896769;29;20056;-92
2021/11/04 15:33:18;;;;;;;6.22;1.40;;;10.50;99.90;;;;;;4912144;29;20057;-90
2021/11/04 15:35:45;;;;;;;1.65;0.40;;;10.50;99.90;;;;;;4882353;29;20593;-91
2021/11/04 15:38:12;;;;;;;1.23;0.43;;;10.40;99.90;;;;;;4887659;29;20518;-91
2021/11/04 15:40:39;;;;;;;4.90;0.68;;;10.50;99.90;;;;;;4883382;29;20072;-93
2021/11/04 15:43:06;;;;;;;3.95;0.98;;;10.40;99.90;;;;;;4897289;29;20045;-91
2021/11/04 15:45:33;;;;;;;3.95;1.13;;;10.40;99.90;;;;;;4880596;29;20052;-92
2021/11/04 15:48:00;;;;;;;6.63;3.58;;;10.40;99.90;;;;;;4898018;29;20045;-92
2021/11/04 15:50:37;;;;;;;1.50;0.65;;;10.40;99.90;;;;;;4890258;29;20470;-92
2021/11/04 15:53:09;;;;;;;4.53;0.75;;;10.40;99.90;;;;;;4886565;29;20140;-93
2021/11/04 15:55:37;;;;;;;2.25;0.50;;;10.40;99.90;;;;;;4878490;29;20057;-92
2021/11/04 15:58:04;;;;;;;5.10;2.17;;;10.40;99.90;;;;;;4895229;29;20104;-90
2021/11/04 16:00:31;;;;;;;3.08;0.60;;;10.40;99.90;;;;;;4897253;29;20055;-91
2021/11/04 16:02:58;;;;;;;3.67;0.70;;;10.40;99.90;;;;;;4882783;29;20049;-90
2021/11/04 16:05:25;;;;;;;2.28;0.60;;;10.40;99.90;;;;;;4895501;29;20053;-90
2021/11/04 16:07:52;;;;;;;3.75;0.65;;;10.40;99.90;;;;;;4888808;29;20562;-88
2021/11/04 16:10:19;;;;;;;2.60;0.95;;;10.30;99.90;;;;;;4893696;29;20131;-93
2021/11/04 16:12:46;;;;;;;1.85;0.43;;;10.30;99.90;;;;;;4880578;29;20049;-92
2021/11/04 16:15:12;;;;;;;1.75;0.57;;;10.30;99.90;;;;;;4896221;29;20096;-89
2021/11/04 16:17:39;;;;;;;3.40;0.73;;;10.30;99.90;;;;;;4880267;29;20053;-90
2021/11/04 16:20:07;;;;;;;2.50;0.60;;;10.20;99.90;;;;;;4884583;29;20105;-91
2021/11/04 16:22:34;;;;;;;1.70;0.82;;;10.20;99.90;;;;;;4872447;29;20044;-90
2021/11/04 16:25:01;;;;;;;3.33;0.95;;;10.10;99.90;;;;;;4876398;29;20101;-90
2021/11/04 16:27:28;;;;;;;4.10;0.50;;;10.10;99.90;;;;;;4871499;29;20049;-91
2021/11/04 16:29:54;;;;;;;2.72;0.63;;;10.00;99.90;;;;;;4888891;29;20053;-91
2021/11/04 16:32:21;;;;;;;3.58;0.80;;;10.00;99.90;;;;;;4881627;29;20105;-91
2021/11/04 16:34:48;;;;;;;2.60;0.80;;;10.00;99.90;;;;;;4891302;29;20049;-91
2021/11/04 16:37:21;;;;;;;5.13;1.42;;;10.00;99.90;;;;;;4891114;29;20049;-89
2021/11/04 16:39:49;;;;;;;4.32;0.85;;;9.90;99.90;;;;;;4889386;29;20572;-91
2021/11/04 16:42:16;;;;;;;3.88;0.60;;;9.80;99.90;;;;;;4895518;29;20108;-90
2021/11/04 16:44:44;;;;;;;3.75;0.93;;;9.80;99.90;;;;;;4886790;29;20104;-89
2021/11/04 16:47:11;;;;;;;3.72;0.80;;;9.70;99.90;;;;;;4897650;29;20525;-91
2021/11/04 16:49:39;;;;;;;3.92;0.70;;;9.70;99.90;;;;;;4895841;29;20129;-91
2021/11/04 16:52:26;;;;;;;5.03;1.80;;;9.60;99.90;;;;;;4887504;29;20522;-92
2021/11/04 16:54:53;;;;;;;1.60;0.47;;;9.60;99.90;;;;;;4882616;29;20057;-90
2021/11/04 16:57:20;;;;;;;2.00;0.80;;;9.50;99.90;;;;;;4897900;29;20053;-91
2021/11/04 16:59:47;;;;;;;1.92;0.50;;;9.40;99.90;;;;;;4889112;29;20045;-92
2021/11/04 17:02:14;;;;;;;4.30;1.05;;;9.40;99.90;;;;;;4882845;29;20052;-89
2021/11/04 17:04:41;;;;;;;3.75;0.80;;;9.30;99.90;;;;;;4883661;29;20104;-92
2021/11/04 17:07:08;;;;;;;2.47;0.77;;;9.30;99.90;;;;;;4897651;29;20044;-90
2021/11/04 17:09:35;;;;;;;1.95;0.60;;;9.30;99.90;;;;;;4891231;29;20079;-91
2021/11/04 17:12:03;;;;;;;2.63;0.98;;;9.20;99.90;;;;;;4881612;29;20052;-90
2021/11/04 17:14:30;;;;;;;2.90;0.60;;;9.20;99.90;;;;;;4879261;29;20079;-91
2021/11/04 17:16:57;;;;;;;2.78;0.70;;;9.20;99.90;;;;;;4899632;29;20146;-89
2021/11/04 17:19:25;;;;;;;3.50;0.70;;;9.20;99.90;;;;;;4876856;29;20056;-90
2021/11/04 17:21:52;;;;;;;2.47;0.60;;;9.10;99.90;;;;;;4890374;29;20549;-90
2021/11/04 17:24:19;;;;;;;2.53;1.00;;;9.10;99.90;;;;;;4896616;29;20052;-92
2021/11/04 17:26:46;;;;;;;4.32;0.60;;;9.10;99.90;;;;;;4883109;29;20049;-90
2021/11/04 17:29:14;;;;;;;5.97;1.50;;;9.00;99.90;;;;;;4898972;29;20053;-89
2021/11/04 17:31:41;;;;;;;2.65;0.93;;;8.90;99.90;;;;;;4897890;29;20048;-89
2021/11/04 17:34:08;;;;;;;4.90;1.50;;;8.90;99.90;;;;;;4891217;29;20108;-89
2021/11/04 17:36:38;;;;;;;6.43;1.65;;;8.80;99.90;;;;;;4883210;29;20088;-91
2021/11/04 17:39:05;;;;;;;5.00;2.83;;;8.80;99.90;;;;;;4889965;29;20076;-88
2021/11/04 17:41:34;;;;;;;5.97;2.38;;;8.80;99.90;;;;;;4896663;29;20056;-90
2021/11/04 17:44:04;;;;;;;2.53;1.05;;;8.80;99.90;;;;;;4898981;29;20063;-91
2021/11/04 17:46:33;;;;;;;5.68;1.20;;;8.80;99.90;;;;;;4899583;29;20497;-90
2021/11/04 17:49:01;;;;;;;1.33;0.98;;;8.70;99.90;;;;;;4877841;29;20108;-90
2021/11/04 17:51:30;;;;;;;5.47;1.30;;;8.70;99.90;;;;;;4898660;29;20110;-91
2021/11/04 17:53:57;;;;;;;2.72;0.80;;;8.70;99.90;;;;;;4899170;29;20116;-92
2021/11/04 17:56:24;;;;;;;3.45;1.05;;;8.70;99.90;;;;;;4904670;29;20109;-91
2021/11/04 17:58:52;;;;;;;5.15;1.33;;;8.70;99.90;;;;;;4906311;29;20097;-91
2021/11/04 18:01:20;;;;;;;3.33;0.90;;;8.70;99.90;;;;;;4906035;29;20052;-86
2021/11/04 18:03:47;;;;;;;3.85;1.08;;;8.70;99.90;;;;;;4902429;29;20057;-92
2021/11/04 18:06:14;;;;;;;3.85;1.30;;;8.60;99.90;;;;;;4898753;29;20060;-91
2021/11/04 18:08:41;;;;;;;5.88;1.30;;;8.60;99.90;;;;;;4902332;29;20045;-90
2021/11/04 18:11:10;;;;;;;7.65;1.48;;;8.60;99.90;;;;;;4906636;29;20521;-89
2021/11/04 18:13:38;;;;;;;5.80;1.55;;;8.50;99.90;;;;;;4896646;29;20473;-90
2021/11/04 18:16:05;;;;;;;2.35;1.00;;;8.50;99.90;;;;;;4894926;29;20053;-91
2021/11/04 18:18:33;;;;;;;5.90;1.27;;;8.40;99.90;;;;;;4895840;29;20051;-89
2021/11/04 18:21:01;;;;;;;3.83;1.40;;;8.40;99.90;;;;;;4892804;29;20052;-89
2021/11/04 18:23:28;;;;;;;4.57;1.20;;;8.40;99.90;;;;;;4897474;29;20060;-89
2021/11/04 18:25:55;;;;;;;5.43;1.23;;;8.30;99.90;;;;;;4895984;29;20057;-88
2021/11/04 18:28:22;;;;;;;6.72;1.30;;;8.30;99.90;;;;;;4900500;29;20067;-89
2021/11/04 18:30:49;;;;;;;1.83;0.80;;;8.20;99.90;;;;;;4897258;29;20100;-86
2021/11/04 18:33:16;;;;;;;5.43;1.13;;;8.30;99.90;;;;;;4902470;29;20577;-92
2021/11/04 18:35:43;;;;;;;2.05;0.77;;;8.30;99.90;;;;;;4883732;29;20576;-91
2021/11/04 18:38:10;;;;;;;1.48;0.90;;;8.30;99.90;;;;;;4882379;29;20474;-90
2021/11/04 18:40:37;;;;;;;3.13;1.15;;;8.30;99.90;;;;;;4903722;29;20474;-91
2021/11/04 18:43:05;;;;;;;6.18;1.50;;;8.30;99.90;;;;;;4900160;29;20125;-89
2021/11/04 18:45:33;;;;;;;2.47;1.20;;;8.30;99.90;;;;;;4902163;29;20052;-88
2021/11/04 18:48:01;;;;;;;9.00;2.30;;;8.30;99.90;;;;;;4901359;29;20639;-90
2021/11/04 18:50:28;;;;;;;7.72;1.10;;;8.30;99.90;;;;;;4886271;29;20077;-90
2021/11/04 18:52:55;;;;;;;6.47;1.90;;;8.30;99.90;;;;;;4901434;29;20107;-90
2021/11/04 18:55:22;;;;;;;2.50;0.73;;;8.30;99.90;;;;;;4904945;29;20517;-90
2021/11/04 18:57:49;;;;;;;4.05;1.60;;;8.30;99.90;;;;;;4903625;29;20053;-90
2021/11/04 19:00:18;;;;;;;4.93;1.13;;;8.30;99.90;;;;;;4898118;29;20056;-91
2021/11/04 19:02:45;;;;;;;2.45;1.30;;;8.30;99.90;;;;;;4892077;29;20053;-91
2021/11/04 19:05:13;;;;;;;6.43;1.40;;;8.30;99.90;;;;;;4901095;29;20104;-91
2021/11/04 19:07:43;;;;;;;4.00;1.30;;;8.20;99.90;;;;;;4883528;29;20052;-91
2021/11/04 19:10:11;;;;;;;5.53;1.67;;;8.10;99.90;;;;;;4903262;29;20048;-92
2021/11/04 19:12:39;;;;;;;4.00;1.05;;;8.10;99.90;;;;;;4882341;29;20134;-91
2021/11/04 19:15:09;;;;;;;5.85;1.83;;;8.00;99.90;;;;;;4896807;29;20053;-91
2021/11/04 19:17:37;;;;;;;4.95;2.08;;;7.90;99.90;;;;;;4896143;29;20049;-91
2021/11/04 19:20:06;;;;;;;4.30;1.40;;;7.90;99.90;;;;;;4878643;29;20048;-91
2021/11/04 19:22:34;;;;;;;4.93;1.60;;;7.80;99.90;;;;;;4897390;29;20100;-91
2021/11/04 19:25:03;;;;;;;3.25;1.23;;;7.70;99.90;;;;;;4872366;29;20088;-91
2021/11/04 19:27:32;;;;;;;4.70;2.00;;;7.60;99.90;;;;;;4892455;29;20044;-90
2021/11/04 19:30:00;;;;;;;2.55;1.33;;;7.50;99.90;;;;;;4895052;29;20052;-91
2021/11/04 19:32:27;;;;;;;6.43;1.87;;;7.50;99.90;;;;;;4894998;29;20048;-91
2021/11/04 19:34:55;;;;;;;6.03;1.77;;;7.40;99.90;;;;;;4889675;29;20393;-91
2021/11/04 19:37:22;;;;;;;6.32;2.35;;;7.40;99.90;;;;;;4892527;29;20623;-89
2021/11/04 19:39:51;;;;;;;6.20;2.10;;;7.40;99.90;;;;;;4891825;29;20265;-90
2021/11/04 19:42:19;;;;;;;8.18;2.65;;;7.40;99.90;;;;;;4892991;29;20049;-90
2021/11/04 19:44:47;;;;;;;6.30;3.08;;;7.40;99.90;;;;;;4886158;29;20068;-89
2021/11/04 19:47:14;;;;;;;7.93;2.50;;;7.30;99.90;;;;;;4873603;29;20108;-88
2021/11/04 19:49:43;;;;;;;4.47;2.20;;;7.30;99.90;;;;;;4886764;29;20055;-88
2021/11/04 19:52:11;;;;;;;9.23;3.08;;;7.40;99.90;;;;;;4876832;29;20528;-89
2021/11/04 19:54:40;;;;;;;5.55;2.28;;;7.30;99.90;;;;;;4885598;29;20068;-90
2021/11/04 19:57:09;;;;;;;7.25;2.88;;;7.30;99.90;;;;;;4877661;29;20083;-90
2021/11/04 19:59:37;;;;;;;5.00;2.20;;;7.30;99.90;;;;;;4892257;29;20052;-90
2021/11/04 20:02:04;;;;;;;7.45;2.40;;;7.30;99.90;;;;;;4877740;29;20056;-86
2021/11/04 20:04:31;;;;;;;7.45;2.40;;;7.30;99.90;;;;;;4891148;29;20048;-90
2021/11/04 20:06:59;;;;;;;9.00;2.60;;;7.30;99.90;;;;;;4893418;29;20056;-90
2021/11/04 20:09:26;;;;;;;6.32;2.80;;;7.30;99.90;;;;;;4883784;29;20049;-90
2021/11/04 20:11:53;;;;;;;4.57;2.15;;;7.30;99.90;;;;;;4878354;29;20056;-90
2021/11/04 20:14:20;;;;;;;8.45;2.88;;;7.20;99.90;;;;;;4893849;29;20056;-90